createdAt,value
2018-05-27T00:00:30.029Z,87.50
2018-05-27T00:03:01.279Z,88.30
2018-05-27T00:05:33.231Z,89.00
2018-05-27T00:08:04.494Z,88.90
2018-05-27T00:10:36.497Z,89.70
2018-05-27T00:13:07.662Z,88.90
2018-05-27T00:15:38.865Z,89.00
2018-05-27T00:18:10.079Z,89.20
2018-05-27T00:20:41.999Z,89.50
2018-05-27T00:23:13.205Z,89.30
2018-05-27T00:25:45.198Z,89.60
2018-05-27T00:28:16.622Z,89.60
2018-05-27T00:30:47.818Z,89.60
2018-05-27T00:33:19.007Z,89.50
2018-05-27T00:35:50.176Z,89.60
2018-05-27T00:38:21.365Z,89.60
2018-05-27T00:40:53.284Z,89.80
2018-05-27T00:43:24.491Z,89.80
2018-05-27T00:45:55.687Z,89.80
2018-05-27T00:48:27.907Z,89.60
2018-05-27T00:50:59.095Z,89.90
2018-05-27T00:53:42.588Z,89.80
2018-05-27T00:56:13.771Z,90.10
2018-05-27T00:58:44.979Z,90.20
2018-05-27T01:01:16.894Z,90.20
2018-05-27T01:03:48.986Z,90.10
2018-05-27T01:06:20.793Z,90.10
2018-05-27T01:08:52.251Z,90.10
2018-05-27T01:11:23.431Z,90.00
2018-05-27T01:13:55.366Z,90.00
2018-05-27T01:16:26.545Z,90.00
2018-05-27T01:18:58.612Z,90.10
2018-05-27T01:21:29.790Z,90.30
2018-05-27T01:24:01.407Z,90.20
2018-05-27T01:26:32.863Z,90.10
2018-05-27T01:29:05.243Z,90.10
2018-05-27T01:31:36.403Z,90.30
2018-05-27T01:34:07.619Z,90.40
2018-05-27T01:36:38.765Z,90.50
2018-05-27T01:39:10.000Z,90.70
2018-05-27T01:41:41.168Z,90.70
2018-05-27T01:44:12.690Z,90.80
2018-05-27T01:46:43.906Z,90.70
2018-05-27T01:49:18.735Z,90.70
2018-05-27T01:51:50.625Z,91.10
2018-05-27T01:54:21.975Z,90.70
2018-05-27T01:56:53.137Z,90.80
2018-05-27T01:59:24.332Z,90.70
2018-05-27T02:01:56.306Z,90.70
2018-05-27T02:04:27.499Z,90.70
2018-05-27T02:06:58.679Z,90.60
2018-05-27T02:09:30.880Z,90.80
2018-05-27T02:12:02.056Z,90.80
2018-05-27T02:14:34.356Z,90.50
2018-05-27T02:17:05.575Z,90.80
2018-05-27T02:19:36.771Z,90.90
2018-05-27T02:22:07.997Z,91.00
2018-05-27T02:24:39.936Z,91.20
2018-05-27T02:27:11.088Z,91.20
2018-05-27T02:29:44.871Z,91.50
2018-05-27T02:32:16.051Z,91.50
2018-05-27T02:34:47.232Z,91.60
2018-05-27T02:37:18.480Z,91.70
2018-05-27T02:39:49.683Z,91.60
2018-05-27T02:42:21.594Z,91.90
2018-05-27T02:44:52.796Z,91.90
2018-05-27T02:47:24.016Z,92.00
2018-05-27T02:49:56.015Z,92.00
2018-05-27T02:52:27.455Z,92.00
2018-05-27T02:54:58.628Z,92.00
2018-05-27T02:57:29.840Z,91.80
2018-05-27T03:00:01.029Z,91.90
2018-05-27T03:02:32.226Z,91.80
2018-05-27T03:05:03.407Z,91.90
2018-05-27T03:07:34.607Z,92.00
2018-05-27T03:10:05.826Z,92.10
2018-05-27T03:12:37.754Z,92.20
2018-05-27T03:15:08.938Z,92.10
2018-05-27T03:17:40.882Z,92.00
2018-05-27T03:20:12.074Z,92.00
2018-05-27T03:22:43.272Z,92.00
2018-05-27T03:25:14.430Z,91.90
2018-05-27T03:27:46.393Z,92.00
2018-05-27T03:30:18.389Z,91.90
2018-05-27T03:32:49.578Z,92.00
2018-05-27T03:35:20.765Z,91.80
2018-05-27T03:37:51.958Z,91.80
2018-05-27T03:40:24.695Z,92.00
2018-05-27T03:42:55.908Z,91.90
2018-05-27T03:45:27.814Z,92.10
2018-05-27T03:47:59.018Z,92.10
2018-05-27T03:50:32.620Z,91.90
2018-05-27T03:53:03.809Z,91.80
2018-05-27T03:55:34.976Z,91.70
2018-05-27T03:58:06.173Z,91.70
2018-05-27T04:00:37.334Z,91.70
2018-05-27T04:03:08.523Z,91.70
2018-05-27T04:05:52.948Z,91.60
2018-05-27T04:08:33.212Z,91.60
2018-05-27T04:11:04.506Z,91.40
2018-05-27T04:13:35.686Z,91.40
2018-05-27T04:16:06.970Z,91.30
2018-05-27T04:18:38.880Z,91.40
2018-05-27T04:21:10.105Z,91.40
2018-05-27T04:23:41.263Z,91.30
2018-05-27T04:26:12.436Z,91.40
2018-05-27T04:28:43.619Z,91.30
2018-05-27T04:31:15.384Z,91.50
2018-05-27T04:33:46.589Z,91.40
2018-05-27T04:36:18.700Z,90.90
2018-05-27T04:38:49.859Z,90.90
2018-05-27T04:41:21.063Z,90.50
2018-05-27T04:43:52.258Z,90.50
2018-05-27T04:46:24.965Z,90.80
2018-05-27T04:48:56.879Z,90.80
2018-05-27T04:51:29.555Z,90.80
2018-05-27T04:54:00.722Z,90.70
2018-05-27T04:56:31.916Z,90.80
2018-05-27T04:59:03.111Z,90.70
2018-05-27T05:01:34.291Z,90.80
2018-05-27T05:04:06.748Z,90.30
2018-05-27T05:06:39.411Z,90.10
2018-05-27T05:09:10.626Z,90.40
2018-05-27T05:11:41.826Z,90.20
2018-05-27T05:14:13.751Z,90.00
2018-05-27T05:16:44.945Z,90.00
2018-05-27T05:19:17.243Z,89.20
2018-05-27T05:21:48.460Z,89.80
2018-05-27T05:24:19.657Z,89.50
2018-05-27T05:26:50.839Z,89.40
2018-05-27T05:29:22.037Z,89.10
2018-05-27T05:31:54.562Z,98.60
2018-05-27T05:34:25.788Z,98.30
2018-05-27T05:36:57.814Z,96.80
2018-05-27T05:39:29.016Z,98.60
2018-05-27T05:42:00.240Z,88.80
2018-05-27T05:44:31.433Z,88.50
2018-05-27T05:47:02.595Z,88.70
2018-05-27T05:49:33.811Z,88.60
2018-05-27T05:52:06.622Z,88.50
2018-05-27T05:54:37.927Z,87.80
2018-05-27T05:57:09.140Z,87.40
2018-05-27T05:59:41.131Z,87.10
2018-05-27T06:02:12.671Z,87.00
2018-05-27T06:04:43.836Z,87.40
2018-05-27T06:07:15.029Z,86.20
2018-05-27T06:09:47.334Z,85.50
2018-05-27T06:12:18.543Z,86.10
2018-05-27T06:14:50.878Z,85.00
2018-05-27T06:17:22.111Z,85.50
2018-05-27T06:19:53.329Z,85.50
2018-05-27T06:22:24.519Z,85.80
2018-05-27T06:24:58.378Z,85.70
2018-05-27T06:27:29.551Z,85.60
2018-05-27T06:30:00.752Z,85.70
2018-05-27T06:32:32.035Z,85.30
2018-05-27T06:35:03.234Z,85.50
2018-05-27T06:37:35.175Z,85.80
2018-05-27T06:40:07.160Z,86.20
2018-05-27T06:42:38.549Z,85.70
2018-05-27T06:45:09.728Z,85.60
2018-05-27T06:47:41.659Z,84.90
2018-05-27T06:50:12.818Z,84.80
2018-05-27T06:52:44.141Z,84.50
2018-05-27T06:55:15.334Z,84.70
2018-05-27T06:57:47.601Z,84.70
2018-05-27T07:00:19.582Z,84.90
2018-05-27T07:02:51.050Z,84.80
2018-05-27T07:05:22.208Z,84.50
2018-05-27T07:07:53.446Z,84.70
2018-05-27T07:10:24.643Z,84.60
2018-05-27T07:12:57.679Z,84.30
2018-05-27T07:15:30.759Z,83.40
2018-05-27T07:18:02.199Z,83.90
2018-05-27T07:20:33.381Z,83.40
2018-05-27T07:23:04.601Z,83.20
2018-05-27T07:25:35.757Z,82.90
2018-05-27T07:28:07.992Z,82.80
2018-05-27T07:30:39.174Z,82.70
2018-05-27T07:33:10.782Z,82.30
2018-05-27T07:35:41.981Z,81.60
2018-05-27T07:38:14.682Z,81.80
2018-05-27T07:40:46.695Z,80.60
2018-05-27T07:43:17.824Z,80.60
2018-05-27T07:45:49.051Z,80.70
2018-05-27T07:48:20.272Z,80.60
2018-05-27T07:50:52.218Z,79.40
2018-05-27T07:53:23.610Z,79.40
2018-05-27T07:55:54.825Z,79.10
2018-05-27T07:58:26.813Z,77.50
2018-05-27T08:00:59.594Z,77.60
2018-05-27T08:03:30.812Z,77.50
2018-05-27T08:06:02.755Z,77.80
2018-05-27T08:08:33.918Z,77.80
2018-05-27T08:11:05.887Z,77.20
2018-05-27T08:13:37.175Z,77.20
2018-05-27T08:16:08.424Z,77.40
2018-05-27T08:18:39.648Z,76.80
2018-05-27T08:21:10.879Z,76.30
2018-05-27T08:23:42.590Z,74.90
2018-05-27T08:26:15.246Z,73.40
2018-05-27T08:28:46.457Z,73.30
2018-05-27T08:31:17.641Z,73.00
2018-05-27T08:33:49.891Z,73.50
2018-05-27T08:36:21.114Z,72.40
2018-05-27T08:38:52.308Z,72.70
2018-05-27T08:41:24.254Z,71.50
2018-05-27T08:43:55.471Z,71.00
2018-05-27T08:46:26.708Z,69.30
2018-05-27T08:48:57.959Z,68.10
2018-05-27T08:51:29.498Z,68.70
2018-05-27T08:54:01.050Z,68.10
2018-05-27T08:56:32.263Z,68.30
2018-05-27T08:59:04.228Z,67.00
2018-05-27T09:01:36.194Z,68.50
2018-05-27T09:04:08.171Z,65.50
2018-05-27T09:06:39.417Z,65.40
2018-05-27T09:09:10.898Z,65.30
2018-05-27T09:11:42.155Z,65.00
2018-05-27T09:14:14.185Z,64.50
2018-05-27T09:16:45.501Z,64.50
2018-05-27T09:19:17.421Z,64.70
2018-05-27T09:21:48.653Z,64.60
2018-05-27T09:24:20.054Z,64.10
2018-05-27T09:26:52.346Z,62.10
2018-05-27T09:29:23.524Z,62.10
2018-05-27T09:31:54.773Z,61.80
2018-05-27T09:34:25.970Z,61.00
2018-05-27T09:36:57.165Z,59.30
2018-05-27T09:39:28.359Z,60.20
2018-05-27T09:41:59.557Z,60.80
2018-05-27T09:44:31.543Z,58.10
2018-05-27T09:47:02.777Z,58.10
2018-05-27T09:49:34.734Z,58.30
2018-05-27T09:52:05.974Z,57.60
2018-05-27T09:54:37.248Z,57.70
2018-05-27T09:57:08.453Z,56.00
2018-05-27T09:59:40.497Z,55.60
2018-05-27T10:02:11.788Z,55.50
2018-05-27T10:04:43.737Z,54.40
2018-05-27T10:07:15.678Z,54.70
2018-05-27T10:09:46.889Z,54.40
2018-05-27T10:12:18.097Z,53.00
2018-05-27T10:14:50.062Z,52.50
2018-05-27T10:17:22.410Z,52.50
2018-05-27T10:19:53.613Z,52.40
2018-05-27T10:22:24.844Z,52.50
2018-05-27T10:24:56.046Z,50.60
2018-05-27T10:27:27.294Z,51.90
2018-05-27T10:29:58.515Z,52.70
2018-05-27T10:32:29.727Z,53.40
2018-05-27T10:35:00.965Z,52.30
2018-05-27T10:37:32.185Z,52.40
2018-05-27T10:40:04.126Z,52.00
2018-05-27T10:42:35.342Z,51.90
2018-05-27T10:45:06.611Z,51.40
2018-05-27T10:47:38.077Z,51.20
2018-05-27T10:50:10.057Z,50.50
2018-05-27T10:52:42.008Z,51.10
2018-05-27T10:55:14.001Z,51.10
2018-05-27T10:57:45.199Z,51.00
2018-05-27T11:00:16.374Z,50.30
2018-05-27T11:02:47.586Z,50.10
2018-05-27T11:05:18.755Z,49.70
2018-05-27T11:07:50.115Z,49.90
2018-05-27T11:10:21.357Z,49.10
2018-05-27T11:12:52.577Z,49.50
2018-05-27T11:15:23.851Z,49.40
2018-05-27T11:17:55.058Z,49.30
2018-05-27T11:20:26.237Z,49.20
2018-05-27T11:22:57.836Z,48.90
2018-05-27T11:25:29.014Z,48.80
2018-05-27T11:28:00.229Z,48.90
2018-05-27T11:30:31.726Z,47.80
2018-05-27T11:33:02.915Z,47.50
2018-05-27T11:35:35.827Z,46.90
2018-05-27T11:38:07.036Z,47.20
2018-05-27T11:40:38.255Z,48.00
2018-05-27T11:43:09.482Z,48.20
2018-05-27T11:45:40.693Z,48.30
2018-05-27T11:48:11.888Z,47.80
2018-05-27T11:50:43.087Z,48.10
2018-05-27T11:53:15.035Z,46.70
2018-05-27T11:55:46.352Z,47.20
2018-05-27T11:58:17.538Z,47.20
2018-05-27T12:00:49.599Z,47.00
2018-05-27T12:03:21.510Z,46.60
2018-05-27T12:05:52.947Z,46.60
2018-05-27T12:08:24.870Z,46.90
2018-05-27T12:10:56.870Z,46.80
2018-05-27T12:13:28.067Z,46.70
2018-05-27T12:15:59.393Z,46.40
2018-05-27T12:18:30.578Z,46.10
2018-05-27T12:21:02.541Z,46.10
2018-05-27T12:23:33.729Z,46.50
2018-05-27T12:26:04.940Z,46.70
2018-05-27T12:28:36.187Z,46.90
2018-05-27T12:31:07.402Z,46.60
2018-05-27T12:33:38.673Z,45.30
2018-05-27T12:36:09.996Z,45.60
2018-05-27T12:38:41.241Z,45.50
2018-05-27T12:41:12.484Z,45.80
2018-05-27T12:43:43.745Z,46.70
2018-05-27T12:46:14.973Z,46.20
2018-05-27T12:48:46.886Z,47.60
2018-05-27T12:51:18.116Z,47.60
2018-05-27T12:53:49.326Z,45.50
2018-05-27T12:56:21.384Z,44.40
2018-05-27T12:58:53.411Z,45.70
2018-05-27T13:01:24.607Z,45.60
2018-05-27T13:03:55.805Z,45.40
2018-05-27T13:06:26.999Z,48.20
2018-05-27T13:08:58.279Z,50.10
2018-05-27T13:11:29.475Z,51.20
2018-05-27T13:14:01.397Z,52.20
2018-05-27T13:16:32.815Z,52.20
2018-05-27T13:19:03.971Z,52.50
2018-05-27T13:21:35.199Z,53.50
2018-05-27T13:24:06.643Z,54.60
2018-05-27T13:26:38.845Z,55.60
2018-05-27T13:29:10.048Z,54.90
2018-05-27T13:31:41.263Z,55.10
2018-05-27T13:34:13.219Z,56.40
2018-05-27T13:36:45.242Z,54.80
2018-05-27T13:39:17.970Z,56.40
2018-05-27T13:41:49.195Z,56.40
2018-05-27T13:44:20.407Z,56.50
2018-05-27T13:46:51.611Z,55.50
2018-05-27T13:49:22.864Z,56.30
2018-05-27T13:51:54.110Z,56.40
2018-05-27T13:54:25.322Z,57.20
2018-05-27T13:56:56.647Z,57.80
2018-05-27T13:59:28.061Z,57.90
2018-05-27T14:01:59.243Z,56.90
2018-05-27T14:04:30.446Z,57.70
2018-05-27T14:07:01.659Z,57.90
2018-05-27T14:09:32.911Z,57.80
2018-05-27T14:12:04.144Z,57.10
2018-05-27T14:14:36.067Z,57.30
2018-05-27T14:17:07.631Z,57.30
2018-05-27T14:19:38.822Z,57.30
2018-05-27T14:22:10.175Z,56.90
2018-05-27T14:24:41.366Z,56.50
2018-05-27T14:27:12.893Z,56.30
2018-05-27T14:29:45.076Z,56.20
2018-05-27T14:32:16.248Z,55.80
2018-05-27T14:34:48.210Z,56.00
2018-05-27T14:37:20.413Z,52.60
2018-05-27T14:39:51.591Z,52.60
2018-05-27T14:42:22.795Z,50.30
2018-05-27T14:44:54.150Z,50.40
2018-05-27T14:47:25.282Z,51.60
2018-05-27T14:49:56.735Z,52.70
2018-05-27T14:52:27.947Z,54.70
2018-05-27T14:54:59.185Z,56.50
2018-05-27T14:57:31.209Z,58.60
2018-05-27T15:00:02.603Z,58.60
2018-05-27T15:02:33.804Z,59.20
2018-05-27T15:05:05.165Z,59.40
2018-05-27T15:07:36.359Z,59.10
2018-05-27T15:10:07.703Z,59.10
2018-05-27T15:12:38.870Z,58.70
2018-05-27T15:15:10.487Z,58.50
2018-05-27T15:17:42.541Z,57.90
2018-05-27T15:20:14.508Z,58.10
2018-05-27T15:22:46.448Z,58.00
2018-05-27T15:25:17.665Z,58.00
2018-05-27T15:27:48.879Z,58.10
2018-05-27T15:30:20.326Z,58.00
2018-05-27T15:32:51.502Z,57.70
2018-05-27T15:35:22.707Z,58.30
2018-05-27T15:37:54.955Z,58.60
2018-05-27T15:40:26.900Z,58.90
2018-05-27T15:42:58.465Z,58.80
2018-05-27T15:45:30.483Z,59.00
2018-05-27T15:48:01.672Z,58.90
2018-05-27T15:50:33.761Z,59.40
2018-05-27T15:53:05.007Z,59.40
2018-05-27T15:55:37.020Z,59.90
2018-05-27T15:58:08.658Z,60.30
2018-05-27T16:00:39.826Z,61.40
2018-05-27T16:03:11.060Z,60.50
2018-05-27T16:05:42.232Z,59.00
2018-05-27T16:08:14.221Z,58.80
2018-05-27T16:10:45.403Z,58.80
2018-05-27T16:13:16.630Z,58.70
2018-05-27T16:15:47.834Z,58.90
2018-05-27T16:18:19.507Z,59.90
2018-05-27T16:20:50.723Z,58.60
2018-05-27T16:23:22.695Z,57.20
2018-05-27T16:25:53.987Z,57.20
2018-05-27T16:28:25.408Z,57.70
2018-05-27T16:30:56.592Z,58.50
2018-05-27T16:33:27.836Z,59.50
2018-05-27T16:35:59.018Z,59.80
2018-05-27T16:38:31.006Z,60.00
2018-05-27T16:41:02.228Z,60.00
2018-05-27T16:43:33.442Z,60.40
2018-05-27T16:46:04.812Z,60.60
2018-05-27T16:48:36.354Z,60.80
2018-05-27T16:51:09.069Z,61.20
2018-05-27T16:53:40.619Z,61.10
2018-05-27T16:56:11.858Z,61.10
2018-05-27T16:58:46.456Z,61.40
2018-05-27T17:01:17.926Z,61.10
2018-05-27T17:03:49.094Z,60.70
2018-05-27T17:06:20.320Z,60.20
2018-05-27T17:08:51.501Z,60.00
2018-05-27T17:11:22.734Z,60.10
2018-05-27T17:13:53.950Z,60.10
2018-05-27T17:16:25.237Z,60.30
2018-05-27T17:18:57.255Z,62.20
2018-05-27T17:21:28.492Z,61.30
2018-05-27T17:23:59.731Z,60.90
2018-05-27T17:26:31.807Z,61.40
2018-05-27T17:29:03.706Z,61.30
2018-05-27T17:31:34.922Z,61.60
2018-05-27T17:34:06.173Z,61.90
2018-05-27T17:36:37.514Z,62.20
2018-05-27T17:39:08.997Z,62.80
2018-05-27T17:41:40.260Z,63.40
2018-05-27T17:44:12.418Z,64.40
2018-05-27T17:46:44.459Z,64.40
2018-05-27T17:49:15.764Z,65.20
2018-05-27T17:51:47.385Z,65.40
2018-05-27T17:54:19.478Z,66.30
2018-05-27T17:56:52.359Z,66.60
2018-05-27T17:59:24.125Z,66.60
2018-05-27T18:01:55.439Z,67.10
2018-05-27T18:04:26.819Z,67.50
2018-05-27T18:06:58.204Z,67.80
2018-05-27T18:09:31.131Z,68.40
2018-05-27T18:12:02.515Z,68.40
2018-05-27T18:14:33.740Z,68.60
2018-05-27T18:17:05.136Z,69.00
2018-05-27T18:19:37.666Z,69.40
2018-05-27T18:22:09.051Z,69.60
2018-05-27T18:24:40.243Z,70.00
2018-05-27T18:27:12.306Z,70.30
2018-05-27T18:29:44.290Z,71.00
2018-05-27T18:32:15.670Z,71.00
2018-05-27T18:34:47.618Z,71.70
2018-05-27T18:37:18.867Z,71.60
2018-05-27T18:39:50.104Z,71.90
2018-05-27T18:42:21.658Z,72.50
2018-05-27T18:44:52.935Z,72.80
2018-05-27T18:47:24.930Z,73.60
2018-05-27T18:49:56.287Z,73.60
2018-05-27T18:52:27.838Z,74.00
2018-05-27T18:54:59.927Z,74.10
2018-05-27T18:57:31.630Z,74.70
2018-05-27T19:00:03.152Z,75.00
2018-05-27T19:02:35.459Z,75.50
2018-05-27T19:05:06.778Z,75.50
2018-05-27T19:07:39.135Z,76.70
2018-05-27T19:10:11.887Z,77.10
2018-05-27T19:12:43.154Z,77.20
2018-05-27T19:15:15.144Z,77.80
2018-05-27T19:17:46.487Z,77.70
2018-05-27T19:20:20.525Z,78.80
2018-05-27T19:22:52.038Z,78.80
2018-05-27T19:25:24.014Z,79.70
2018-05-27T19:27:55.224Z,79.70
2018-05-27T19:30:28.233Z,80.10
2018-05-27T19:33:00.613Z,80.10
2018-05-27T19:35:32.665Z,80.30
2018-05-27T19:38:03.914Z,80.20
2018-05-27T19:40:36.721Z,80.10
2018-05-27T19:43:08.301Z,80.10
2018-05-27T19:45:39.732Z,80.00
2018-05-27T19:48:10.963Z,80.40
2018-05-27T19:50:42.870Z,80.50
2018-05-27T19:53:14.251Z,80.50
2018-05-27T19:55:46.222Z,80.40
2018-05-27T19:58:18.215Z,80.20
2018-05-27T20:00:49.638Z,80.20
2018-05-27T20:03:21.763Z,79.80
2018-05-27T20:05:52.994Z,79.70
2018-05-27T20:08:25.827Z,79.80
2018-05-27T20:10:57.859Z,79.70
2018-05-27T20:13:32.834Z,79.60
2018-05-27T20:16:04.833Z,79.60
2018-05-27T20:18:36.143Z,79.60
2018-05-27T20:21:08.965Z,79.50
2018-05-27T20:23:40.268Z,79.40
2018-05-27T20:26:11.761Z,79.20
2018-05-27T20:28:43.110Z,79.10
2018-05-27T20:31:14.373Z,79.80
2018-05-27T20:33:45.695Z,79.00
2018-05-27T20:36:17.112Z,85.80
2018-05-27T20:38:48.743Z,83.90
2018-05-27T20:41:22.299Z,84.60
2018-05-27T20:43:53.708Z,83.50
2018-05-27T20:46:26.530Z,81.60
2018-05-27T20:48:58.622Z,79.80
2018-05-27T20:51:29.939Z,79.00
2018-05-27T20:54:01.475Z,79.00
2018-05-27T20:56:33.491Z,79.00
2018-05-27T20:59:06.660Z,79.20
2018-05-27T21:01:40.160Z,79.20
2018-05-27T21:04:11.872Z,79.20
2018-05-27T21:06:43.588Z,79.20
2018-05-27T21:09:15.616Z,79.40
2018-05-27T21:11:47.188Z,79.20
2018-05-27T21:14:18.492Z,79.80
2018-05-27T21:16:49.727Z,80.00
2018-05-27T21:19:22.054Z,80.20
2018-05-27T21:21:55.115Z,80.60
2018-05-27T21:24:26.517Z,80.60
2018-05-27T21:26:57.807Z,80.90
2018-05-27T21:29:30.308Z,81.30
2018-05-27T21:32:01.637Z,81.40
2018-05-27T21:34:32.974Z,81.60
2018-05-27T21:37:04.377Z,81.80
2018-05-27T21:39:36.364Z,81.90
2018-05-27T21:42:07.830Z,81.80
2018-05-27T21:44:39.056Z,82.00
2018-05-27T21:47:10.296Z,82.30
2018-05-27T21:49:42.018Z,82.20
2018-05-27T21:52:13.994Z,82.60
2018-05-27T21:54:46.325Z,82.60
2018-05-27T21:57:17.846Z,82.50
2018-05-27T21:59:49.083Z,82.80
2018-05-27T22:02:21.376Z,82.30
2018-05-27T22:04:52.570Z,83.10
2018-05-27T22:07:24.718Z,83.30
2018-05-27T22:09:56.710Z,83.60
2018-05-27T22:12:28.025Z,83.50
2018-05-27T22:15:00.153Z,84.00
2018-05-27T22:17:31.452Z,83.90
2018-05-27T22:20:02.703Z,84.10
2018-05-27T22:22:34.914Z,84.40
2018-05-27T22:25:06.978Z,84.30
2018-05-27T22:27:38.285Z,84.60
2018-05-27T22:30:10.215Z,84.60
2018-05-27T22:32:41.498Z,84.60
2018-05-27T22:35:13.438Z,85.10
2018-05-27T22:37:45.440Z,85.70
2018-05-27T22:40:16.730Z,85.20
2018-05-27T22:42:48.252Z,85.20
2018-05-27T22:45:19.504Z,85.20
2018-05-27T22:47:50.924Z,85.30
2018-05-27T22:50:22.233Z,85.60
2018-05-27T22:52:53.452Z,85.80
2018-05-27T22:55:24.905Z,85.80
2018-05-27T22:57:56.969Z,85.80
2018-05-27T23:00:28.195Z,85.80
2018-05-27T23:02:59.544Z,85.90
2018-05-27T23:05:30.854Z,86.00
2018-05-27T23:08:02.117Z,86.00
2018-05-27T23:10:33.475Z,86.00
2018-05-27T23:13:04.697Z,86.20
2018-05-27T23:15:35.915Z,86.30
2018-05-27T23:18:07.839Z,86.20
2018-05-27T23:20:39.083Z,86.90
2018-05-27T23:23:11.598Z,86.40
2018-05-27T23:25:42.780Z,86.50
2018-05-27T23:28:14.027Z,86.70
2018-05-27T23:30:45.191Z,86.80
2018-05-27T23:33:16.707Z,86.80
2018-05-27T23:35:47.970Z,86.80
2018-05-27T23:38:19.668Z,86.90
2018-05-27T23:40:51.579Z,87.10
2018-05-27T23:43:22.849Z,87.00
2018-05-27T23:45:54.086Z,87.00
2018-05-27T23:48:25.500Z,87.10
2018-05-27T23:50:56.723Z,87.10
2018-05-27T23:53:29.025Z,87.20
2018-05-27T23:56:00.241Z,87.20
2018-05-27T23:58:32.218Z,87.40
